sensor_id;sensor_type;location;lat;lon;timestamp;temperature;humidity
40534;DHT22;26233;51.894;10.192;2023-04-03T00:00:10;4.00;40.20
40534;DHT22;26233;51.894;10.192;2023-04-03T00:02:37;3.90;40.20
40534;DHT22;26233;51.894;10.192;2023-04-03T00:05:06;3.90;40.20
40534;DHT22;26233;51.894;10.192;2023-04-03T00:07:34;3.90;40.30
40534;DHT22;26233;51.894;10.192;2023-04-03T00:10:03;3.90;40.30
40534;DHT22;26233;51.894;10.192;2023-04-03T00:12:30;3.90;40.20
40534;DHT22;26233;51.894;10.192;2023-04-03T00:14:58;3.90;40.20
40534;DHT22;26233;51.894;10.192;2023-04-03T00:17:25;3.90;40.20
40534;DHT22;26233;51.894;10.192;2023-04-03T00:19:52;3.80;40.20
40534;DHT22;26233;51.894;10.192;2023-04-03T00:22:20;3.80;40.20
40534;DHT22;26233;51.894;10.192;2023-04-03T00:24:47;3.80;40.30
40534;DHT22;26233;51.894;10.192;2023-04-03T00:27:15;3.80;40.30
40534;DHT22;26233;51.894;10.192;2023-04-03T00:29:42;3.80;40.30
40534;DHT22;26233;51.894;10.192;2023-04-03T00:32:09;3.70;40.30
40534;DHT22;26233;51.894;10.192;2023-04-03T00:34:36;3.70;40.30
40534;DHT22;26233;51.894;10.192;2023-04-03T00:37:03;3.70;40.30
40534;DHT22;26233;51.894;10.192;2023-04-03T00:39:30;3.70;40.30
40534;DHT22;26233;51.894;10.192;2023-04-03T00:41:58;3.70;40.30
40534;DHT22;26233;51.894;10.192;2023-04-03T00:47:46;3.60;40.40
40534;DHT22;26233;51.894;10.192;2023-04-03T00:50:13;3.60;40.40
40534;DHT22;26233;51.894;10.192;2023-04-03T00:52:40;3.50;40.30
40534;DHT22;26233;51.894;10.192;2023-04-03T00:55:08;3.60;40.40
40534;DHT22;26233;51.894;10.192;2023-04-03T00:57:38;3.60;40.40
40534;DHT22;26233;51.894;10.192;2023-04-03T01:00:07;3.60;40.40
40534;DHT22;26233;51.894;10.192;2023-04-03T01:02:36;3.50;40.30
40534;DHT22;26233;51.894;10.192;2023-04-03T01:05:08;3.50;40.30
40534;DHT22;26233;51.894;10.192;2023-04-03T01:07:35;3.50;40.40
40534;DHT22;26233;51.894;10.192;2023-04-03T01:10:05;3.50;40.40
40534;DHT22;26233;51.894;10.192;2023-04-03T01:12:35;3.50;40.40
40534;DHT22;26233;51.894;10.192;2023-04-03T01:15:05;3.40;40.30
40534;DHT22;26233;51.894;10.192;2023-04-03T01:17:35;3.40;40.30
40534;DHT22;26233;51.894;10.192;2023-04-03T01:20:32;3.40;40.30
40534;DHT22;26233;51.894;10.192;2023-04-03T01:23:22;3.30;40.40
40534;DHT22;26233;51.894;10.192;2023-04-03T01:25:57;3.30;40.70
40534;DHT22;26233;51.894;10.192;2023-04-03T01:28:26;3.30;40.50
40534;DHT22;26233;51.894;10.192;2023-04-03T01:31:01;3.20;40.50
40534;DHT22;26233;51.894;10.192;2023-04-03T01:33:37;3.20;40.50
40534;DHT22;26233;51.894;10.192;2023-04-03T01:36:05;3.20;40.50
40534;DHT22;26233;51.894;10.192;2023-04-03T01:38:33;3.20;40.50
40534;DHT22;26233;51.894;10.192;2023-04-03T01:41:00;3.20;40.50
40534;DHT22;26233;51.894;10.192;2023-04-03T01:43:29;3.20;40.50
40534;DHT22;26233;51.894;10.192;2023-04-03T01:45:56;3.10;40.40
40534;DHT22;26233;51.894;10.192;2023-04-03T01:48:23;3.10;40.50
40534;DHT22;26233;51.894;10.192;2023-04-03T01:50:51;3.20;40.60
40534;DHT22;26233;51.894;10.192;2023-04-03T01:53:21;3.10;40.60
40534;DHT22;26233;51.894;10.192;2023-04-03T01:55:48;3.10;40.70
40534;DHT22;26233;51.894;10.192;2023-04-03T01:58:15;3.10;40.60
40534;DHT22;26233;51.894;10.192;2023-04-03T02:00:43;3.10;40.60
40534;DHT22;26233;51.894;10.192;2023-04-03T02:03:10;3.10;40.60
40534;DHT22;26233;51.894;10.192;2023-04-03T02:05:40;3.10;40.70
40534;DHT22;26233;51.894;10.192;2023-04-03T02:08:09;3.10;40.70
40534;DHT22;26233;51.894;10.192;2023-04-03T02:10:36;3.10;40.70
40534;DHT22;26233;51.894;10.192;2023-04-03T02:13:03;3.10;40.80
40534;DHT22;26233;51.894;10.192;2023-04-03T02:15:30;3.00;40.80
40534;DHT22;26233;51.894;10.192;2023-04-03T02:17:57;3.00;40.50
40534;DHT22;26233;51.894;10.192;2023-04-03T02:20:25;3.00;40.50
40534;DHT22;26233;51.894;10.192;2023-04-03T02:22:52;3.00;40.50
40534;DHT22;26233;51.894;10.192;2023-04-03T02:25:20;3.00;40.50
40534;DHT22;26233;51.894;10.192;2023-04-03T02:27:47;2.90;40.50
40534;DHT22;26233;51.894;10.192;2023-04-03T02:30:14;2.90;40.50
40534;DHT22;26233;51.894;10.192;2023-04-03T02:32:42;2.90;40.60
40534;DHT22;26233;51.894;10.192;2023-04-03T02:35:10;2.90;40.60
40534;DHT22;26233;51.894;10.192;2023-04-03T02:37:37;2.90;40.60
40534;DHT22;26233;51.894;10.192;2023-04-03T02:40:06;2.90;40.60
40534;DHT22;26233;51.894;10.192;2023-04-03T02:42:35;2.90;40.60
40534;DHT22;26233;51.894;10.192;2023-04-03T02:45:02;2.90;40.70
40534;DHT22;26233;51.894;10.192;2023-04-03T02:47:30;2.90;40.80
40534;DHT22;26233;51.894;10.192;2023-04-03T02:49:57;2.90;40.80
40534;DHT22;26233;51.894;10.192;2023-04-03T02:52:24;2.90;40.80
40534;DHT22;26233;51.894;10.192;2023-04-03T02:54:51;2.90;40.80
40534;DHT22;26233;51.894;10.192;2023-04-03T02:57:18;2.90;40.80
40534;DHT22;26233;51.894;10.192;2023-04-03T02:59:47;3.00;40.80
40534;DHT22;26233;51.894;10.192;2023-04-03T03:02:14;2.90;40.80
40534;DHT22;26233;51.894;10.192;2023-04-03T03:04:41;2.90;40.70
40534;DHT22;26233;51.894;10.192;2023-04-03T03:07:08;2.90;41.30
40534;DHT22;26233;51.894;10.192;2023-04-03T03:09:36;2.90;40.70
40534;DHT22;26233;51.894;10.192;2023-04-03T03:12:03;2.90;40.80
40534;DHT22;26233;51.894;10.192;2023-04-03T03:14:30;3.00;40.90
40534;DHT22;26233;51.894;10.192;2023-04-03T03:16:59;3.00;41.00
40534;DHT22;26233;51.894;10.192;2023-04-03T03:19:26;3.00;41.00
40534;DHT22;26233;51.894;10.192;2023-04-03T03:21:53;3.00;40.90
40534;DHT22;26233;51.894;10.192;2023-04-03T03:24:20;3.10;40.90
40534;DHT22;26233;51.894;10.192;2023-04-03T03:26:47;3.00;40.80
40534;DHT22;26233;51.894;10.192;2023-04-03T03:29:14;3.00;40.80
40534;DHT22;26233;51.894;10.192;2023-04-03T03:31:41;3.00;40.90
40534;DHT22;26233;51.894;10.192;2023-04-03T03:34:09;3.10;40.90
40534;DHT22;26233;51.894;10.192;2023-04-03T03:36:37;3.10;41.00
40534;DHT22;26233;51.894;10.192;2023-04-03T03:39:04;3.10;40.90
40534;DHT22;26233;51.894;10.192;2023-04-03T03:41:33;3.10;40.90
40534;DHT22;26233;51.894;10.192;2023-04-03T03:44:00;3.10;40.90
40534;DHT22;26233;51.894;10.192;2023-04-03T03:46:27;3.10;40.90
40534;DHT22;26233;51.894;10.192;2023-04-03T03:48:54;3.10;40.90
40534;DHT22;26233;51.894;10.192;2023-04-03T03:51:22;3.10;40.80
40534;DHT22;26233;51.894;10.192;2023-04-03T03:53:49;3.10;40.90
40534;DHT22;26233;51.894;10.192;2023-04-03T03:56:16;3.00;40.80
40534;DHT22;26233;51.894;10.192;2023-04-03T03:58:43;3.00;40.80
40534;DHT22;26233;51.894;10.192;2023-04-03T04:01:10;3.00;40.70
40534;DHT22;26233;51.894;10.192;2023-04-03T04:03:38;3.00;40.70
40534;DHT22;26233;51.894;10.192;2023-04-03T04:06:05;3.00;40.80
40534;DHT22;26233;51.894;10.192;2023-04-03T04:08:33;3.00;40.80
40534;DHT22;26233;51.894;10.192;2023-04-03T04:11:00;3.00;41.00
40534;DHT22;26233;51.894;10.192;2023-04-03T04:13:27;2.90;40.80
40534;DHT22;26233;51.894;10.192;2023-04-03T04:15:54;2.90;40.80
40534;DHT22;26233;51.894;10.192;2023-04-03T04:18:22;2.90;40.80
40534;DHT22;26233;51.894;10.192;2023-04-03T04:20:49;2.90;40.70
40534;DHT22;26233;51.894;10.192;2023-04-03T04:23:17;2.90;40.70
40534;DHT22;26233;51.894;10.192;2023-04-03T04:25:46;2.90;40.80
40534;DHT22;26233;51.894;10.192;2023-04-03T04:28:14;2.80;40.70
40534;DHT22;26233;51.894;10.192;2023-04-03T04:30:44;2.80;40.70
40534;DHT22;26233;51.894;10.192;2023-04-03T04:33:13;2.80;40.70
40534;DHT22;26233;51.894;10.192;2023-04-03T04:35:42;2.70;40.60
40534;DHT22;26233;51.894;10.192;2023-04-03T04:38:09;2.70;40.70
40534;DHT22;26233;51.894;10.192;2023-04-03T04:40:36;2.70;40.70
40534;DHT22;26233;51.894;10.192;2023-04-03T04:43:05;2.70;40.70
40534;DHT22;26233;51.894;10.192;2023-04-03T04:45:32;2.80;40.80
40534;DHT22;26233;51.894;10.192;2023-04-03T04:47:59;2.60;40.60
40534;DHT22;26233;51.894;10.192;2023-04-03T04:50:26;2.60;40.80
40534;DHT22;26233;51.894;10.192;2023-04-03T04:52:53;2.60;40.80
40534;DHT22;26233;51.894;10.192;2023-04-03T04:55:20;2.60;40.80
40534;DHT22;26233;51.894;10.192;2023-04-03T04:57:47;2.50;40.90
40534;DHT22;26233;51.894;10.192;2023-04-03T05:00:17;2.50;40.80
40534;DHT22;26233;51.894;10.192;2023-04-03T05:02:44;2.50;40.80
40534;DHT22;26233;51.894;10.192;2023-04-03T05:05:11;2.50;40.80
40534;DHT22;26233;51.894;10.192;2023-04-03T05:07:38;2.50;40.80
40534;DHT22;26233;51.894;10.192;2023-04-03T05:10:08;2.50;40.90
40534;DHT22;26233;51.894;10.192;2023-04-03T05:12:35;2.50;40.80
40534;DHT22;26233;51.894;10.192;2023-04-03T05:15:03;2.50;40.90
40534;DHT22;26233;51.894;10.192;2023-04-03T05:17:35;2.40;41.50
40534;DHT22;26233;51.894;10.192;2023-04-03T05:20:03;2.40;40.90
40534;DHT22;26233;51.894;10.192;2023-04-03T05:22:31;2.50;41.00
40534;DHT22;26233;51.894;10.192;2023-04-03T05:24:58;2.40;40.90
40534;DHT22;26233;51.894;10.192;2023-04-03T05:27:27;2.50;41.00
40534;DHT22;26233;51.894;10.192;2023-04-03T05:29:54;2.50;41.00
40534;DHT22;26233;51.894;10.192;2023-04-03T05:32:22;2.50;41.00
40534;DHT22;26233;51.894;10.192;2023-04-03T05:34:52;2.40;40.90
40534;DHT22;26233;51.894;10.192;2023-04-03T05:37:19;2.40;40.80
40534;DHT22;26233;51.894;10.192;2023-04-03T05:39:49;2.40;40.90
40534;DHT22;26233;51.894;10.192;2023-04-03T05:42:16;2.40;40.90
40534;DHT22;26233;51.894;10.192;2023-04-03T05:44:43;2.40;40.90
40534;DHT22;26233;51.894;10.192;2023-04-03T05:47:12;2.40;41.60
40534;DHT22;26233;51.894;10.192;2023-04-03T05:49:40;2.30;41.00
40534;DHT22;26233;51.894;10.192;2023-04-03T05:52:11;2.40;41.20
40534;DHT22;26233;51.894;10.192;2023-04-03T05:54:46;2.40;41.30
40534;DHT22;26233;51.894;10.192;2023-04-03T05:57:13;2.40;41.30
40534;DHT22;26233;51.894;10.192;2023-04-03T05:59:41;2.40;41.40
40534;DHT22;26233;51.894;10.192;2023-04-03T06:02:10;2.50;41.70
40534;DHT22;26233;51.894;10.192;2023-04-03T06:04:37;2.70;42.50
40534;DHT22;26233;51.894;10.192;2023-04-03T06:07:05;2.90;43.30
40534;DHT22;26233;51.894;10.192;2023-04-03T06:09:34;3.30;44.40
40534;DHT22;26233;51.894;10.192;2023-04-03T06:12:02;3.70;45.10
40534;DHT22;26233;51.894;10.192;2023-04-03T06:14:29;4.20;45.60
40534;DHT22;26233;51.894;10.192;2023-04-03T06:16:58;4.70;45.60
40534;DHT22;26233;51.894;10.192;2023-04-03T06:19:25;5.20;45.40
40534;DHT22;26233;51.894;10.192;2023-04-03T06:21:52;5.60;45.10
40534;DHT22;26233;51.894;10.192;2023-04-03T06:24:20;6.00;45.00
40534;DHT22;26233;51.894;10.192;2023-04-03T06:26:51;6.50;45.50
40534;DHT22;26233;51.894;10.192;2023-04-03T06:29:18;6.90;46.00
40534;DHT22;26233;51.894;10.192;2023-04-03T06:31:46;7.40;46.10
40534;DHT22;26233;51.894;10.192;2023-04-03T06:34:13;8.00;45.60
40534;DHT22;26233;51.894;10.192;2023-04-03T06:36:41;8.30;45.10
40534;DHT22;26233;51.894;10.192;2023-04-03T06:39:09;8.60;43.70
40534;DHT22;26233;51.894;10.192;2023-04-03T06:41:39;8.60;42.30
40534;DHT22;26233;51.894;10.192;2023-04-03T06:44:08;8.50;41.20
40534;DHT22;26233;51.894;10.192;2023-04-03T06:46:38;8.30;40.50
40534;DHT22;26233;51.894;10.192;2023-04-03T06:49:05;8.00;40.00
40534;DHT22;26233;51.894;10.192;2023-04-03T06:51:34;7.80;40.40
40534;DHT22;26233;51.894;10.192;2023-04-03T06:54:03;7.60;40.50
40534;DHT22;26233;51.894;10.192;2023-04-03T06:56:31;7.40;40.60
40534;DHT22;26233;51.894;10.192;2023-04-03T06:58:59;7.30;40.70
40534;DHT22;26233;51.894;10.192;2023-04-03T07:01:28;7.20;40.70
40534;DHT22;26233;51.894;10.192;2023-04-03T07:03:56;7.10;40.50
40534;DHT22;26233;51.894;10.192;2023-04-03T07:06:23;7.10;40.50
40534;DHT22;26233;51.894;10.192;2023-04-03T07:08:53;7.00;40.40
40534;DHT22;26233;51.894;10.192;2023-04-03T07:11:24;6.90;40.60
40534;DHT22;26233;51.894;10.192;2023-04-03T07:13:52;6.80;40.80
40534;DHT22;26233;51.894;10.192;2023-04-03T07:16:19;6.70;40.70
40534;DHT22;26233;51.894;10.192;2023-04-03T07:18:48;6.70;40.80
40534;DHT22;26233;51.894;10.192;2023-04-03T07:21:18;6.70;40.70
40534;DHT22;26233;51.894;10.192;2023-04-03T07:23:47;6.70;40.60
40534;DHT22;26233;51.894;10.192;2023-04-03T07:26:15;6.70;40.40
40534;DHT22;26233;51.894;10.192;2023-04-03T07:28:42;6.60;40.50
40534;DHT22;26233;51.894;10.192;2023-04-03T07:31:11;6.60;40.50
40534;DHT22;26233;51.894;10.192;2023-04-03T07:33:39;6.50;40.40
40534;DHT22;26233;51.894;10.192;2023-04-03T07:36:16;6.50;40.40
40534;DHT22;26233;51.894;10.192;2023-04-03T07:38:49;6.40;40.30
40534;DHT22;26233;51.894;10.192;2023-04-03T07:41:18;6.40;40.50
40534;DHT22;26233;51.894;10.192;2023-04-03T07:43:46;6.40;40.60
40534;DHT22;26233;51.894;10.192;2023-04-03T07:46:15;6.30;40.60
40534;DHT22;26233;51.894;10.192;2023-04-03T07:48:42;6.40;40.90
40534;DHT22;26233;51.894;10.192;2023-04-03T07:51:12;6.40;41.00
40534;DHT22;26233;51.894;10.192;2023-04-03T07:53:41;6.50;41.30
40534;DHT22;26233;51.894;10.192;2023-04-03T07:56:09;6.60;41.50
40534;DHT22;26233;51.894;10.192;2023-04-03T07:58:36;6.70;41.50
40534;DHT22;26233;51.894;10.192;2023-04-03T08:01:04;6.90;41.80
40534;DHT22;26233;51.894;10.192;2023-04-03T08:03:31;7.00;41.70
40534;DHT22;26233;51.894;10.192;2023-04-03T08:06:02;7.20;41.80
40534;DHT22;26233;51.894;10.192;2023-04-03T08:08:32;7.30;41.70
40534;DHT22;26233;51.894;10.192;2023-04-03T08:11:00;7.40;41.70
40534;DHT22;26233;51.894;10.192;2023-04-03T08:13:30;7.70;41.50
40534;DHT22;26233;51.894;10.192;2023-04-03T08:15:57;7.80;41.80
40534;DHT22;26233;51.894;10.192;2023-04-03T08:18:32;8.00;41.90
40534;DHT22;26233;51.894;10.192;2023-04-03T08:21:00;8.20;42.60
40534;DHT22;26233;51.894;10.192;2023-04-03T08:23:27;8.70;43.90
40534;DHT22;26233;51.894;10.192;2023-04-03T08:25:55;9.20;45.10
40534;DHT22;26233;51.894;10.192;2023-04-03T08:28:22;9.90;46.00
40534;DHT22;26233;51.894;10.192;2023-04-03T08:30:49;10.70;45.30
40534;DHT22;26233;51.894;10.192;2023-04-03T08:33:16;11.50;45.40
40534;DHT22;26233;51.894;10.192;2023-04-03T08:35:43;12.20;45.00
40534;DHT22;26233;51.894;10.192;2023-04-03T08:38:10;12.80;44.40
40534;DHT22;26233;51.894;10.192;2023-04-03T08:40:38;13.50;44.40
40534;DHT22;26233;51.894;10.192;2023-04-03T08:43:24;14.10;44.20
40534;DHT22;26233;51.894;10.192;2023-04-03T08:46:01;14.60;43.30
40534;DHT22;26233;51.894;10.192;2023-04-03T08:48:34;15.10;42.80
40534;DHT22;26233;51.894;10.192;2023-04-03T08:51:06;15.30;42.00
40534;DHT22;26233;51.894;10.192;2023-04-03T08:53:43;15.70;42.30
40534;DHT22;26233;51.894;10.192;2023-04-03T08:56:14;16.00;40.70
40534;DHT22;26233;51.894;10.192;2023-04-03T08:58:48;16.10;40.50
40534;DHT22;26233;51.894;10.192;2023-04-03T09:01:21;16.30;40.30
40534;DHT22;26233;51.894;10.192;2023-04-03T09:03:50;16.50;40.30
40534;DHT22;26233;51.894;10.192;2023-04-03T09:06:20;16.60;39.20
40534;DHT22;26233;51.894;10.192;2023-04-03T09:08:51;16.60;38.60
40534;DHT22;26233;51.894;10.192;2023-04-03T09:11:25;16.40;37.80
40534;DHT22;26233;51.894;10.192;2023-04-03T09:13:59;16.10;37.20
40534;DHT22;26233;51.894;10.192;2023-04-03T09:16:36;15.90;36.10
40534;DHT22;26233;51.894;10.192;2023-04-03T09:19:15;15.70;37.00
40534;DHT22;26233;51.894;10.192;2023-04-03T09:21:45;15.50;36.80
40534;DHT22;26233;51.894;10.192;2023-04-03T09:24:15;15.20;36.50
40534;DHT22;26233;51.894;10.192;2023-04-03T09:26:45;14.90;36.20
40534;DHT22;26233;51.894;10.192;2023-04-03T09:29:19;14.70;36.00
40534;DHT22;26233;51.894;10.192;2023-04-03T09:31:49;14.40;35.30
40534;DHT22;26233;51.894;10.192;2023-04-03T09:34:20;14.10;35.40
40534;DHT22;26233;51.894;10.192;2023-04-03T09:36:52;13.90;36.00
40534;DHT22;26233;51.894;10.192;2023-04-03T09:39:21;13.80;36.20
40534;DHT22;26233;51.894;10.192;2023-04-03T09:41:59;13.90;36.90
40534;DHT22;26233;51.894;10.192;2023-04-03T09:44:30;14.00;36.70
40534;DHT22;26233;51.894;10.192;2023-04-03T09:46:58;14.20;36.70
40534;DHT22;26233;51.894;10.192;2023-04-03T09:49:26;14.30;36.50
40534;DHT22;26233;51.894;10.192;2023-04-03T09:51:53;14.20;34.70
40534;DHT22;26233;51.894;10.192;2023-04-03T09:54:35;13.90;33.20
40534;DHT22;26233;51.894;10.192;2023-04-03T09:57:09;13.50;32.20
40534;DHT22;26233;51.894;10.192;2023-04-03T09:59:46;12.90;31.80
40534;DHT22;26233;51.894;10.192;2023-04-03T10:02:27;12.40;31.30
40534;DHT22;26233;51.894;10.192;2023-04-03T10:04:59;11.90;31.80
40534;DHT22;26233;51.894;10.192;2023-04-03T10:07:29;11.40;32.20
40534;DHT22;26233;51.894;10.192;2023-04-03T10:09:59;11.20;33.00
40534;DHT22;26233;51.894;10.192;2023-04-03T10:12:27;11.10;33.70
40534;DHT22;26233;51.894;10.192;2023-04-03T10:14:57;11.00;33.70
40534;DHT22;26233;51.894;10.192;2023-04-03T10:17:35;11.00;34.20
40534;DHT22;26233;51.894;10.192;2023-04-03T10:20:14;10.90;33.70
40534;DHT22;26233;51.894;10.192;2023-04-03T10:23:00;10.70;33.30
40534;DHT22;26233;51.894;10.192;2023-04-03T10:25:39;10.50;33.10
40534;DHT22;26233;51.894;10.192;2023-04-03T10:28:11;10.30;32.90
40534;DHT22;26233;51.894;10.192;2023-04-03T10:30:50;10.00;32.50
40534;DHT22;26233;51.894;10.192;2023-04-03T10:33:31;9.80;33.90
40534;DHT22;26233;51.894;10.192;2023-04-03T10:36:12;9.60;33.70
40534;DHT22;26233;51.894;10.192;2023-04-03T10:38:51;9.40;34.30
40534;DHT22;26233;51.894;10.192;2023-04-03T10:41:28;9.30;34.50
40534;DHT22;26233;51.894;10.192;2023-04-03T10:44:12;9.30;34.40
40534;DHT22;26233;51.894;10.192;2023-04-03T10:46:47;9.20;34.30
40534;DHT22;26233;51.894;10.192;2023-04-03T10:49:25;9.10;34.30
40534;DHT22;26233;51.894;10.192;2023-04-03T10:52:03;9.10;34.40
40534;DHT22;26233;51.894;10.192;2023-04-03T10:54:38;9.10;34.30
40534;DHT22;26233;51.894;10.192;2023-04-03T10:57:09;9.00;34.30
40534;DHT22;26233;51.894;10.192;2023-04-03T10:59:40;9.00;34.30
40534;DHT22;26233;51.894;10.192;2023-04-03T11:02:16;9.10;34.60
40534;DHT22;26233;51.894;10.192;2023-04-03T11:04:52;9.00;34.50
40534;DHT22;26233;51.894;10.192;2023-04-03T11:07:22;9.10;34.60
40534;DHT22;26233;51.894;10.192;2023-04-03T11:10:00;9.10;34.10
40534;DHT22;26233;51.894;10.192;2023-04-03T11:12:38;9.00;33.80
40534;DHT22;26233;51.894;10.192;2023-04-03T11:15:11;8.90;33.80
40534;DHT22;26233;51.894;10.192;2023-04-03T11:17:45;8.80;33.70
40534;DHT22;26233;51.894;10.192;2023-04-03T11:20:18;8.70;33.90
40534;DHT22;26233;51.894;10.192;2023-04-03T11:22:57;8.60;33.80
40534;DHT22;26233;51.894;10.192;2023-04-03T11:25:32;8.60;34.20
40534;DHT22;26233;51.894;10.192;2023-04-03T11:28:03;8.50;34.10
40534;DHT22;26233;51.894;10.192;2023-04-03T11:30:36;8.60;34.20
40534;DHT22;26233;51.894;10.192;2023-04-03T11:33:24;8.50;34.20
40534;DHT22;26233;51.894;10.192;2023-04-03T11:36:07;8.60;34.20
40534;DHT22;26233;51.894;10.192;2023-04-03T11:38:38;8.50;34.20
40534;DHT22;26233;51.894;10.192;2023-04-03T11:41:12;8.50;34.40
40534;DHT22;26233;51.894;10.192;2023-04-03T11:43:43;8.50;34.40
40534;DHT22;26233;51.894;10.192;2023-04-03T11:46:23;8.50;34.50
40534;DHT22;26233;51.894;10.192;2023-04-03T11:49:52;8.80;35.80
40534;DHT22;26233;51.894;10.192;2023-04-03T11:52:55;9.00;36.20
40534;DHT22;26233;51.894;10.192;2023-04-03T11:55:56;9.50;37.00
40534;DHT22;26233;51.894;10.192;2023-04-03T11:58:29;9.80;35.60
40534;DHT22;26233;51.894;10.192;2023-04-03T12:01:00;10.10;34.60
40534;DHT22;26233;51.894;10.192;2023-04-03T12:07:10;10.30;34.40
40534;DHT22;26233;51.894;10.192;2023-04-03T12:10:12;10.20;33.30
40534;DHT22;26233;51.894;10.192;2023-04-03T12:12:43;10.30;33.50
40534;DHT22;26233;51.894;10.192;2023-04-03T12:15:52;10.50;33.90
40534;DHT22;26233;51.894;10.192;2023-04-03T12:18:59;10.60;34.00
40534;DHT22;26233;51.894;10.192;2023-04-03T12:22:11;10.70;32.80
40534;DHT22;26233;51.894;10.192;2023-04-03T12:24:41;10.80;33.00
40534;DHT22;26233;51.894;10.192;2023-04-03T12:27:34;10.70;33.00
40534;DHT22;26233;51.894;10.192;2023-04-03T12:30:13;10.60;32.50
40534;DHT22;26233;51.894;10.192;2023-04-03T12:32:51;10.50;32.50
40534;DHT22;26233;51.894;10.192;2023-04-03T12:35:28;10.40;32.10
40534;DHT22;26233;51.894;10.192;2023-04-03T12:41:23;10.10;32.10
40534;DHT22;26233;51.894;10.192;2023-04-03T12:44:06;10.10;32.70
40534;DHT22;26233;51.894;10.192;2023-04-03T12:46:44;10.00;32.80
40534;DHT22;26233;51.894;10.192;2023-04-03T12:49:35;10.00;32.70
40534;DHT22;26233;51.894;10.192;2023-04-03T12:52:06;9.90;33.00
40534;DHT22;26233;51.894;10.192;2023-04-03T12:54:46;9.80;33.10
40534;DHT22;26233;51.894;10.192;2023-04-03T12:57:18;9.60;33.10
40534;DHT22;26233;51.894;10.192;2023-04-03T12:59:46;9.50;32.70
40534;DHT22;26233;51.894;10.192;2023-04-03T13:02:23;9.40;32.80
40534;DHT22;26233;51.894;10.192;2023-04-03T13:04:52;9.30;32.60
40534;DHT22;26233;51.894;10.192;2023-04-03T13:07:22;9.30;33.30
40534;DHT22;26233;51.894;10.192;2023-04-03T13:09:58;9.40;34.30
40534;DHT22;26233;51.894;10.192;2023-04-03T13:12:27;9.60;34.50
40534;DHT22;26233;51.894;10.192;2023-04-03T13:14:56;9.60;34.30
40534;DHT22;26233;51.894;10.192;2023-04-03T13:17:25;9.80;33.90
40534;DHT22;26233;51.894;10.192;2023-04-03T13:19:53;9.90;33.60
40534;DHT22;26233;51.894;10.192;2023-04-03T13:22:27;9.90;34.00
40534;DHT22;26233;51.894;10.192;2023-04-03T13:24:59;10.00;32.30
40534;DHT22;26233;51.894;10.192;2023-04-03T13:27:32;10.00;32.90
40534;DHT22;26233;51.894;10.192;2023-04-03T13:30:01;10.10;33.30
40534;DHT22;26233;51.894;10.192;2023-04-03T13:32:31;10.40;33.80
40534;DHT22;26233;51.894;10.192;2023-04-03T13:34:59;10.60;33.80
40534;DHT22;26233;51.894;10.192;2023-04-03T13:37:30;10.90;34.20
40534;DHT22;26233;51.894;10.192;2023-04-03T13:40:08;11.20;33.60
40534;DHT22;26233;51.894;10.192;2023-04-03T13:42:40;11.40;33.30
40534;DHT22;26233;51.894;10.192;2023-04-03T13:45:20;11.60;32.90
40534;DHT22;26233;51.894;10.192;2023-04-03T13:47:51;11.60;32.10
40534;DHT22;26233;51.894;10.192;2023-04-03T13:50:22;11.70;32.70
40534;DHT22;26233;51.894;10.192;2023-04-03T13:52:53;11.80;32.70
40534;DHT22;26233;51.894;10.192;2023-04-03T13:55:28;11.80;32.10
40534;DHT22;26233;51.894;10.192;2023-04-03T13:57:58;11.90;32.40
40534;DHT22;26233;51.894;10.192;2023-04-03T14:00:49;11.90;31.80
40534;DHT22;26233;51.894;10.192;2023-04-03T14:03:21;11.90;31.40
40534;DHT22;26233;51.894;10.192;2023-04-03T14:05:49;11.80;31.20
40534;DHT22;26233;51.894;10.192;2023-04-03T14:08:17;11.70;31.10
40534;DHT22;26233;51.894;10.192;2023-04-03T14:10:48;11.50;31.00
40534;DHT22;26233;51.894;10.192;2023-04-03T14:13:17;11.50;31.30
40534;DHT22;26233;51.894;10.192;2023-04-03T14:15:46;11.40;31.10
40534;DHT22;26233;51.894;10.192;2023-04-03T14:18:18;11.30;31.20
40534;DHT22;26233;51.894;10.192;2023-04-03T14:20:48;11.10;31.00
40534;DHT22;26233;51.894;10.192;2023-04-03T14:23:15;11.00;30.90
40534;DHT22;26233;51.894;10.192;2023-04-03T14:25:43;10.90;30.80
40534;DHT22;26233;51.894;10.192;2023-04-03T14:28:17;10.70;30.80
40534;DHT22;26233;51.894;10.192;2023-04-03T14:30:47;10.70;30.80
40534;DHT22;26233;51.894;10.192;2023-04-03T14:33:17;10.60;31.20
40534;DHT22;26233;51.894;10.192;2023-04-03T14:35:45;10.60;31.20
40534;DHT22;26233;51.894;10.192;2023-04-03T14:38:21;10.60;30.70
40534;DHT22;26233;51.894;10.192;2023-04-03T14:40:51;10.50;30.50
40534;DHT22;26233;51.894;10.192;2023-04-03T14:43:20;10.40;30.50
40534;DHT22;26233;51.894;10.192;2023-04-03T14:45:48;10.40;30.90
40534;DHT22;26233;51.894;10.192;2023-04-03T14:48:19;10.40;31.20
40534;DHT22;26233;51.894;10.192;2023-04-03T14:50:48;10.50;31.10
40534;DHT22;26233;51.894;10.192;2023-04-03T14:53:16;10.50;31.10
40534;DHT22;26233;51.894;10.192;2023-04-03T14:55:45;10.50;30.80
40534;DHT22;26233;51.894;10.192;2023-04-03T14:58:14;10.40;30.20
40534;DHT22;26233;51.894;10.192;2023-04-03T15:00:43;10.30;30.10
40534;DHT22;26233;51.894;10.192;2023-04-03T15:03:14;10.30;30.70
40534;DHT22;26233;51.894;10.192;2023-04-03T15:05:42;10.40;31.00
40534;DHT22;26233;51.894;10.192;2023-04-03T15:08:18;10.50;31.30
40534;DHT22;26233;51.894;10.192;2023-04-03T15:10:49;10.60;31.20
40534;DHT22;26233;51.894;10.192;2023-04-03T15:13:21;10.60;30.70
40534;DHT22;26233;51.894;10.192;2023-04-03T15:15:52;10.60;30.60
40534;DHT22;26233;51.894;10.192;2023-04-03T15:18:21;10.50;30.40
40534;DHT22;26233;51.894;10.192;2023-04-03T15:20:51;10.40;30.00
40534;DHT22;26233;51.894;10.192;2023-04-03T15:23:21;10.30;30.10
40534;DHT22;26233;51.894;10.192;2023-04-03T15:25:52;10.20;30.20
40534;DHT22;26233;51.894;10.192;2023-04-03T15:28:26;10.10;30.50
40534;DHT22;26233;51.894;10.192;2023-04-03T15:30:56;10.20;30.80
40534;DHT22;26233;51.894;10.192;2023-04-03T15:33:24;10.20;31.10
40534;DHT22;26233;51.894;10.192;2023-04-03T15:35:51;10.30;31.00
40534;DHT22;26233;51.894;10.192;2023-04-03T15:38:18;10.30;30.80
40534;DHT22;26233;51.894;10.192;2023-04-03T15:40:46;10.30;30.00
40534;DHT22;26233;51.894;10.192;2023-04-03T15:43:14;10.30;30.00
40534;DHT22;26233;51.894;10.192;2023-04-03T15:45:42;10.10;29.70
40534;DHT22;26233;51.894;10.192;2023-04-03T15:48:13;10.00;29.80
40534;DHT22;26233;51.894;10.192;2023-04-03T15:50:41;9.80;30.30
40534;DHT22;26233;51.894;10.192;2023-04-03T15:53:08;9.60;30.10
40534;DHT22;26233;51.894;10.192;2023-04-03T15:55:37;9.50;30.30
40534;DHT22;26233;51.894;10.192;2023-04-03T15:58:05;9.40;30.40